createdAt,value
2022-08-21T00:01:17.413Z,74.91
2022-08-21T00:03:49.817Z,74.94
2022-08-21T00:06:19.830Z,75.02
2022-08-21T00:08:52.767Z,75.07
2022-08-21T00:12:02.270Z,75.13
2022-08-21T00:14:36.640Z,75.37
2022-08-21T00:17:08.435Z,75.44
2022-08-21T00:19:39.025Z,75.78
2022-08-21T00:22:08.976Z,75.86
2022-08-21T00:24:39.783Z,75.82
2022-08-21T00:27:11.388Z,75.76
2022-08-21T00:34:00.906Z,75.96
2022-08-21T00:36:34.179Z,75.77
2022-08-21T00:39:07.883Z,75.83
2022-08-21T00:41:41.623Z,75.89
2022-08-21T00:44:14.768Z,76.06
2022-08-21T00:46:48.019Z,75.99
2022-08-21T00:49:20.638Z,75.80
2022-08-21T00:51:57.019Z,75.75
2022-08-21T00:54:30.055Z,75.86
2022-08-21T00:57:08.919Z,76.02
2022-08-21T00:59:41.019Z,76.11
2022-08-21T01:02:12.593Z,76.24
2022-08-21T01:04:45.329Z,76.16
2022-08-21T01:07:17.763Z,76.15
2022-08-21T01:09:50.311Z,76.22
2022-08-21T01:12:22.695Z,76.15
2022-08-21T01:14:53.241Z,76.17
2022-08-21T01:17:24.331Z,76.27
2022-08-21T01:19:59.465Z,76.27
2022-08-21T01:22:29.724Z,76.30
2022-08-21T01:25:02.071Z,76.32
2022-08-21T01:27:34.363Z,76.26
2022-08-21T01:30:12.463Z,76.46
2022-08-21T01:32:41.731Z,76.52
2022-08-21T01:35:15.967Z,76.43
2022-08-21T01:37:46.610Z,76.53
2022-08-21T01:40:18.605Z,76.38
2022-08-21T01:42:48.798Z,76.42
2022-08-21T01:45:19.422Z,76.39
2022-08-21T01:47:50.512Z,76.52
2022-08-21T01:50:21.947Z,76.80
2022-08-21T01:52:53.332Z,77.10
2022-08-21T01:55:27.055Z,77.20
2022-08-21T01:57:57.934Z,77.06
2022-08-21T02:00:30.201Z,76.88
2022-08-21T02:03:01.422Z,76.96
2022-08-21T02:05:31.655Z,77.06
2022-08-21T02:08:08.563Z,76.90
2022-08-21T02:10:39.202Z,77.12
2022-08-21T02:13:15.448Z,77.34
2022-08-21T02:15:46.735Z,77.19
2022-08-21T02:18:17.710Z,77.20
2022-08-21T02:20:56.085Z,77.23
2022-08-21T02:23:46.504Z,77.31
2022-08-21T02:26:19.667Z,77.42
2022-08-21T02:33:42.482Z,77.29
2022-08-21T02:36:16.308Z,76.98
2022-08-21T02:38:48.652Z,77.24
2022-08-21T02:41:23.661Z,77.48
2022-08-21T02:43:52.900Z,77.62
2022-08-21T02:46:25.276Z,77.75
2022-08-21T02:48:59.599Z,77.84
2022-08-21T02:52:04.411Z,77.91
2022-08-21T02:55:25.097Z,77.78
2022-08-21T02:57:55.920Z,77.86
2022-08-21T03:00:48.443Z,77.97
2022-08-21T03:03:18.673Z,78.06
2022-08-21T03:05:51.101Z,77.87
2022-08-21T03:08:22.811Z,78.11
2022-08-21T03:10:56.316Z,78.36
2022-08-21T03:13:28.664Z,78.38
2022-08-21T03:15:57.723Z,78.50
2022-08-21T03:18:29.312Z,78.72
2022-08-21T03:20:58.620Z,78.75
2022-08-21T03:23:32.676Z,78.69
2022-08-21T03:26:45.818Z,78.57
2022-08-21T03:30:09.889Z,78.65
2022-08-21T03:33:03.270Z,78.71
2022-08-21T03:35:47.113Z,78.66
2022-08-21T03:38:22.272Z,78.81
2022-08-21T03:40:54.041Z,78.74
2022-08-21T03:43:26.576Z,78.64
2022-08-21T03:46:08.983Z,78.71
2022-08-21T03:48:41.766Z,78.68
2022-08-21T03:51:17.153Z,78.71
2022-08-21T03:53:48.640Z,78.91
2022-08-21T03:56:19.268Z,79.00
2022-08-21T03:58:50.747Z,78.99
2022-08-21T04:01:24.332Z,78.83
2022-08-21T04:03:57.102Z,78.94
2022-08-21T04:06:35.790Z,79.05
2022-08-21T04:10:07.948Z,79.08
2022-08-21T04:12:39.129Z,78.84
2022-08-21T04:15:11.698Z,78.65
2022-08-21T04:17:43.845Z,78.54
2022-08-21T04:20:14.961Z,78.68
2022-08-21T04:22:52.030Z,78.63
2022-08-21T04:25:25.036Z,78.81
2022-08-21T04:27:56.298Z,78.98
2022-08-21T04:30:28.986Z,79.03
2022-08-21T04:33:00.878Z,79.14
2022-08-21T04:35:33.214Z,79.25
2022-08-21T04:38:03.198Z,79.14
2022-08-21T04:40:32.742Z,79.11
2022-08-21T04:43:10.131Z,79.43
2022-08-21T04:45:44.261Z,79.19
2022-08-21T04:48:16.413Z,79.18
2022-08-21T04:50:52.683Z,79.38
2022-08-21T04:53:35.524Z,79.31
2022-08-21T04:56:13.706Z,79.17
2022-08-21T04:58:44.749Z,79.12
2022-08-21T05:01:21.499Z,79.48
2022-08-21T05:03:58.552Z,79.64
2022-08-21T05:06:32.740Z,79.93
2022-08-21T05:09:04.592Z,79.85
2022-08-21T05:11:38.528Z,79.68
2022-08-21T05:14:08.201Z,79.55
2022-08-21T05:16:38.160Z,79.56
2022-08-21T05:19:36.315Z,79.49
2022-08-21T05:22:05.231Z,79.32
2022-08-21T05:24:35.521Z,79.36
2022-08-21T05:27:05.672Z,79.27
2022-08-21T05:29:37.400Z,79.15
2022-08-21T05:32:13.078Z,79.17
2022-08-21T05:34:43.339Z,79.09
2022-08-21T05:37:14.917Z,79.26
2022-08-21T05:40:04.803Z,79.27
2022-08-21T05:42:38.904Z,79.12
2022-08-21T05:45:13.970Z,78.58
2022-08-21T05:47:43.626Z,78.72
2022-08-21T05:50:13.710Z,78.72
2022-08-21T05:52:43.017Z,78.93
2022-08-21T05:55:15.415Z,78.55
2022-08-21T05:57:57.548Z,78.62
2022-08-21T06:03:27.215Z,78.26
2022-08-21T06:06:27.972Z,78.44
2022-08-21T06:09:21.006Z,78.33
2022-08-21T06:11:53.030Z,78.32
2022-08-21T06:14:28.861Z,78.05
2022-08-21T06:17:21.436Z,77.89
2022-08-21T06:20:01.240Z,78.29
2022-08-21T06:22:44.450Z,78.39
2022-08-21T06:25:38.939Z,77.76
2022-08-21T06:28:12.848Z,77.34
2022-08-21T06:31:18.671Z,77.46
2022-08-21T06:33:54.650Z,77.28
2022-08-21T06:36:30.097Z,76.94
2022-08-21T06:39:06.689Z,77.48
2022-08-21T06:41:57.371Z,77.37
2022-08-21T06:44:31.907Z,76.77
2022-08-21T06:47:04.210Z,76.61
2022-08-21T06:49:33.815Z,76.81
2022-08-21T06:52:05.561Z,76.44
2022-08-21T06:54:35.821Z,76.20
2022-08-21T06:57:06.134Z,75.60
2022-08-21T06:59:59.532Z,75.72
2022-08-21T07:02:56.693Z,76.23
2022-08-21T07:05:30.317Z,76.43
2022-08-21T07:07:59.784Z,76.55
2022-08-21T07:10:30.186Z,76.51
2022-08-21T07:16:09.614Z,75.38
2022-08-21T07:18:39.971Z,73.13
2022-08-21T07:21:10.815Z,71.43
2022-08-21T07:23:49.379Z,70.19
2022-08-21T07:26:22.131Z,69.03
2022-08-21T07:33:01.406Z,68.13
2022-08-21T07:35:34.936Z,69.02
2022-08-21T07:38:05.835Z,68.88
2022-08-21T07:40:37.622Z,69.60
2022-08-21T07:43:08.527Z,68.88
2022-08-21T07:45:37.853Z,67.40
2022-08-21T07:48:06.678Z,66.06
2022-08-21T07:50:36.028Z,65.69
2022-08-21T07:53:09.095Z,66.95
2022-08-21T07:55:38.121Z,67.64
2022-08-21T07:58:08.412Z,68.37
2022-08-21T08:00:39.419Z,68.84
2022-08-21T08:03:11.121Z,68.66
2022-08-21T08:05:40.774Z,67.71
2022-08-21T08:08:10.851Z,67.26
2022-08-21T08:10:40.757Z,67.74
2022-08-21T08:13:11.930Z,67.58
2022-08-21T08:15:42.209Z,67.69
2022-08-21T08:18:16.689Z,66.76
2022-08-21T08:20:46.598Z,66.89
2022-08-21T08:23:20.975Z,67.16
2022-08-21T08:25:54.956Z,67.38
2022-08-21T08:28:25.386Z,67.11
2022-08-21T08:30:57.494Z,68.02
2022-08-21T08:33:27.532Z,68.54
2022-08-21T08:36:23.766Z,67.73
2022-08-21T08:39:31.640Z,66.32
2022-08-21T08:42:36.079Z,64.75
2022-08-21T08:45:23.507Z,64.22
2022-08-21T08:48:14.482Z,64.57
2022-08-21T08:51:00.168Z,64.52
2022-08-21T08:53:50.031Z,64.77
2022-08-21T08:56:23.720Z,64.18
2022-08-21T08:58:54.739Z,63.36
2022-08-21T09:01:24.954Z,63.31
2022-08-21T09:03:59.246Z,62.64
2022-08-21T09:06:44.531Z,61.69
2022-08-21T09:09:41.370Z,61.06
2022-08-21T09:12:33.316Z,60.09
2022-08-21T09:15:19.072Z,59.90
2022-08-21T09:17:58.726Z,59.62
2022-08-21T09:20:34.100Z,58.28
2022-08-21T09:23:26.771Z,58.22
2022-08-21T09:26:09.457Z,57.69
2022-08-21T09:28:42.498Z,57.38
2022-08-21T09:31:36.341Z,56.60
2022-08-21T09:34:11.697Z,55.58
2022-08-21T09:36:44.586Z,55.33
2022-08-21T09:39:26.910Z,55.04
2022-08-21T09:42:04.072Z,54.20
2022-08-21T09:44:37.444Z,54.12
2022-08-21T09:47:07.027Z,53.81
2022-08-21T09:49:39.644Z,53.83
2022-08-21T09:52:26.464Z,53.19
2022-08-21T09:54:58.809Z,52.55
2022-08-21T09:57:46.686Z,52.74
2022-08-21T10:00:27.218Z,52.86
2022-08-21T10:02:56.106Z,52.65
2022-08-21T10:05:30.322Z,52.13
2022-08-21T10:08:03.126Z,52.29
2022-08-21T10:10:38.008Z,52.40
2022-08-21T10:13:23.556Z,52.66
2022-08-21T10:16:17.835Z,52.04
2022-08-21T10:19:22.017Z,51.62
2022-08-21T10:22:07.142Z,51.47
2022-08-21T10:24:57.498Z,51.19
2022-08-21T10:27:45.031Z,51.02
2022-08-21T10:31:04.291Z,51.06
2022-08-21T10:34:11.142Z,51.09
2022-08-21T10:37:10.557Z,50.80
2022-08-21T10:39:52.944Z,50.51
2022-08-21T10:42:27.454Z,50.66
2022-08-21T10:45:45.178Z,50.32
2022-08-21T10:48:33.482Z,50.66
2022-08-21T10:51:20.922Z,50.83
2022-08-21T10:54:20.226Z,50.53
2022-08-21T10:57:01.990Z,50.27
2022-08-21T11:00:12.712Z,50.35
2022-08-21T11:03:17.708Z,50.43
2022-08-21T11:05:53.499Z,50.07
2022-08-21T11:08:36.136Z,49.71
2022-08-21T11:11:08.776Z,49.65
2022-08-21T11:13:49.699Z,49.78
2022-08-21T11:16:39.289Z,49.93
2022-08-21T11:19:35.371Z,49.91
2022-08-21T11:22:30.881Z,50.20
2022-08-21T11:25:15.325Z,50.48
2022-08-21T11:27:57.527Z,50.44
2022-08-21T11:31:01.284Z,50.57
2022-08-21T11:34:01.948Z,51.05
2022-08-21T11:36:48.946Z,50.96
2022-08-21T11:39:32.191Z,50.84
2022-08-21T11:42:31.558Z,50.90
2022-08-21T11:45:21.089Z,50.90
2022-08-21T11:48:09.128Z,50.91
2022-08-21T11:50:41.437Z,50.87
2022-08-21T11:53:24.761Z,50.80
2022-08-21T11:56:15.942Z,50.88
2022-08-21T11:58:51.039Z,50.63
2022-08-21T12:01:25.213Z,50.53
2022-08-21T12:04:00.055Z,50.12
2022-08-21T12:06:37.271Z,50.45
2022-08-21T12:09:35.900Z,50.44
2022-08-21T12:12:06.247Z,50.37
2022-08-21T12:14:52.717Z,50.71
2022-08-21T12:17:25.645Z,49.93
2022-08-21T12:20:02.034Z,49.79
2022-08-21T12:22:43.859Z,49.69
2022-08-21T12:25:21.777Z,49.44
2022-08-21T12:28:09.316Z,49.79
2022-08-21T12:31:29.624Z,49.78
2022-08-21T12:34:04.038Z,49.67
2022-08-21T12:36:45.288Z,48.96
2022-08-21T12:39:21.023Z,48.76
2022-08-21T12:42:02.451Z,49.16
2022-08-21T12:44:42.631Z,48.88
2022-08-21T12:47:46.697Z,48.71
2022-08-21T12:50:38.849Z,48.18
2022-08-21T12:53:28.230Z,48.65
2022-08-21T12:56:05.085Z,48.64
2022-08-21T12:58:35.018Z,48.42
2022-08-21T13:01:14.230Z,48.08
2022-08-21T13:03:46.204Z,48.09
2022-08-21T13:06:18.548Z,48.40
2022-08-21T13:08:52.091Z,48.23
2022-08-21T13:11:33.643Z,48.61
2022-08-21T13:14:06.030Z,48.75
2022-08-21T13:16:36.278Z,48.90
2022-08-21T13:19:09.603Z,48.97
2022-08-21T13:21:43.750Z,48.75
2022-08-21T13:24:42.930Z,48.68
2022-08-21T13:27:22.306Z,48.90
2022-08-21T13:30:16.893Z,49.11
2022-08-21T13:32:50.057Z,49.02
2022-08-21T13:35:50.962Z,49.05
2022-08-21T13:38:28.300Z,49.04
2022-08-21T13:41:11.679Z,49.27
2022-08-21T13:43:49.929Z,49.30
2022-08-21T13:46:22.809Z,49.26
2022-08-21T13:48:54.796Z,49.11
2022-08-21T13:51:24.335Z,49.05
2022-08-21T13:53:54.649Z,49.20
2022-08-21T13:56:31.282Z,49.48
2022-08-21T13:59:05.287Z,49.79
2022-08-21T14:01:37.918Z,49.61
2022-08-21T14:04:31.211Z,49.77
2022-08-21T14:07:02.591Z,50.02
2022-08-21T14:09:44.269Z,49.97
2022-08-21T14:12:25.742Z,49.88
2022-08-21T14:15:06.297Z,50.23
2022-08-21T14:17:39.408Z,50.24
2022-08-21T14:20:11.945Z,50.42
2022-08-21T14:22:48.418Z,50.76
2022-08-21T14:25:44.767Z,51.02
2022-08-21T14:28:33.331Z,51.25
2022-08-21T14:31:21.797Z,51.59
2022-08-21T14:33:54.424Z,51.71
2022-08-21T14:36:23.740Z,51.76
2022-08-21T14:38:54.272Z,51.91
2022-08-21T14:41:28.902Z,52.09
2022-08-21T14:44:08.161Z,52.10
2022-08-21T14:46:55.190Z,52.33
2022-08-21T14:49:30.872Z,52.50
2022-08-21T14:52:00.190Z,52.63
2022-08-21T14:54:32.656Z,52.80
2022-08-21T14:57:11.802Z,53.12
2022-08-21T14:59:44.059Z,53.18
2022-08-21T15:02:13.269Z,53.23
2022-08-21T15:04:44.336Z,53.45
2022-08-21T15:07:13.968Z,53.45
2022-08-21T15:09:43.138Z,53.44
2022-08-21T15:12:14.640Z,53.66
2022-08-21T15:14:44.407Z,53.67
2022-08-21T15:17:16.061Z,53.72
2022-08-21T15:19:46.641Z,53.76
2022-08-21T15:22:19.166Z,53.97
2022-08-21T15:24:58.543Z,53.92
2022-08-21T15:27:29.162Z,53.59
2022-08-21T15:29:58.610Z,53.46
2022-08-21T15:32:32.058Z,53.42
2022-08-21T15:35:03.003Z,53.65
2022-08-21T15:37:33.803Z,53.87
2022-08-21T15:40:03.299Z,53.87
2022-08-21T15:42:33.776Z,54.19
2022-08-21T15:45:09.328Z,54.35
2022-08-21T15:47:39.941Z,54.60
2022-08-21T15:50:12.328Z,55.09
2022-08-21T15:52:41.650Z,55.15
2022-08-21T15:55:11.932Z,55.68
2022-08-21T15:57:56.825Z,55.74
2022-08-21T16:00:29.388Z,55.66
2022-08-21T16:03:04.504Z,56.02
2022-08-21T16:05:36.931Z,56.17
2022-08-21T16:08:05.849Z,56.40
2022-08-21T16:10:37.011Z,56.43
2022-08-21T16:13:13.294Z,56.70
2022-08-21T16:15:43.456Z,56.68
2022-08-21T16:18:13.713Z,56.89
2022-08-21T16:20:44.602Z,57.01
2022-08-21T16:23:16.376Z,57.12
2022-08-21T16:25:46.699Z,57.04
2022-08-21T16:28:19.126Z,57.28
2022-08-21T16:30:53.219Z,57.31
2022-08-21T16:33:45.186Z,57.46
2022-08-21T16:36:14.366Z,57.52
2022-08-21T16:38:45.236Z,57.72
2022-08-21T16:41:20.192Z,57.98
2022-08-21T16:43:51.313Z,57.95
2022-08-21T16:46:22.614Z,58.00
2022-08-21T16:48:52.492Z,58.00
2022-08-21T16:51:21.601Z,58.05
2022-08-21T16:53:52.314Z,58.20
2022-08-21T16:56:21.204Z,58.31
2022-08-21T16:58:52.110Z,58.42
2022-08-21T17:01:28.382Z,58.59
2022-08-21T17:03:58.979Z,58.72
2022-08-21T17:06:31.059Z,58.68
2022-08-21T17:09:01.979Z,58.76
2022-08-21T17:11:45.613Z,58.95
2022-08-21T17:14:24.301Z,59.12
2022-08-21T17:16:56.228Z,59.18
2022-08-21T17:19:25.324Z,59.13
2022-08-21T17:21:54.503Z,59.42
2022-08-21T17:24:23.543Z,59.50
2022-08-21T17:26:56.811Z,59.61
2022-08-21T17:29:31.405Z,59.70
2022-08-21T17:32:02.563Z,59.80
2022-08-21T17:34:33.550Z,59.86
2022-08-21T17:37:02.786Z,59.89
2022-08-21T17:39:33.640Z,60.08
2022-08-21T17:42:10.347Z,60.12
2022-08-21T17:44:44.469Z,60.28
2022-08-21T17:47:15.071Z,60.50
2022-08-21T17:49:44.619Z,60.53
2022-08-21T17:52:15.270Z,60.58
2022-08-21T17:54:44.520Z,60.70
2022-08-21T17:57:21.575Z,60.80
2022-08-21T17:59:58.190Z,60.74
2022-08-21T18:02:32.320Z,60.86
2022-08-21T18:05:03.533Z,61.01
2022-08-21T18:07:33.065Z,61.09
2022-08-21T18:10:09.050Z,61.16
2022-08-21T18:12:43.018Z,61.43
2022-08-21T18:15:16.203Z,61.48
2022-08-21T18:17:48.795Z,61.57
2022-08-21T18:20:21.020Z,61.80
2022-08-21T18:22:50.743Z,61.91
2022-08-21T18:25:21.462Z,61.91
2022-08-21T18:27:51.720Z,61.97
2022-08-21T18:34:55.510Z,62.27
2022-08-21T18:37:26.633Z,62.21
2022-08-21T18:39:55.825Z,62.23
2022-08-21T18:42:28.592Z,62.42
2022-08-21T18:45:05.041Z,62.56
2022-08-21T18:47:41.827Z,62.67
2022-08-21T18:50:13.912Z,62.56
2022-08-21T18:52:52.506Z,62.54
2022-08-21T18:55:24.881Z,62.69
2022-08-21T18:57:59.515Z,62.82
2022-08-21T19:00:37.734Z,62.98
2022-08-21T19:03:15.801Z,63.13
2022-08-21T19:05:54.579Z,63.16
2022-08-21T19:08:25.998Z,63.24
2022-08-21T19:11:01.934Z,63.23
2022-08-21T19:13:35.077Z,63.23
2022-08-21T19:16:09.592Z,63.29
2022-08-21T19:18:42.455Z,63.34
2022-08-21T19:21:13.131Z,63.48
2022-08-21T19:23:44.456Z,63.66
2022-08-21T19:26:17.446Z,63.79
2022-08-21T19:28:54.872Z,63.65
2022-08-21T19:31:36.414Z,63.77
2022-08-21T19:34:26.273Z,63.81
2022-08-21T19:37:00.240Z,63.82
2022-08-21T19:39:32.836Z,63.93
2022-08-21T19:42:04.137Z,63.88
2022-08-21T19:44:34.544Z,64.02
2022-08-21T19:47:07.437Z,64.11
2022-08-21T19:49:44.894Z,64.15
2022-08-21T19:52:16.456Z,64.19
2022-08-21T19:54:49.418Z,64.26
2022-08-21T19:57:20.135Z,64.19
2022-08-21T19:59:51.253Z,64.33
2022-08-21T20:02:21.101Z,64.34
2022-08-21T20:04:57.929Z,64.44
2022-08-21T20:07:36.173Z,64.55
2022-08-21T20:10:06.924Z,64.56
2022-08-21T20:12:37.680Z,64.71
2022-08-21T20:15:09.515Z,64.74
2022-08-21T20:17:43.003Z,64.78
2022-08-21T20:20:16.073Z,64.77
2022-08-21T20:22:47.619Z,64.76
2022-08-21T20:25:22.312Z,64.90
2022-08-21T20:27:54.511Z,65.07
2022-08-21T20:30:23.676Z,65.00
2022-08-21T20:32:55.341Z,65.02
2022-08-21T20:35:27.646Z,65.01
2022-08-21T20:37:57.963Z,65.19
2022-08-21T20:40:32.913Z,65.29
2022-08-21T20:43:06.046Z,65.34
2022-08-21T20:45:38.731Z,65.39
2022-08-21T20:48:23.557Z,65.45
2022-08-21T20:51:00.868Z,65.51
2022-08-21T20:53:43.494Z,65.54
2022-08-21T20:56:17.838Z,65.58
2022-08-21T20:59:00.284Z,65.79
2022-08-21T21:01:33.871Z,65.80
2022-08-21T21:04:19.710Z,65.79
2022-08-21T21:06:58.378Z,65.90
2022-08-21T21:09:41.132Z,65.87
2022-08-21T21:12:28.022Z,66.03
2022-08-21T21:15:15.590Z,66.01
2022-08-21T21:18:41.405Z,66.08
2022-08-21T21:21:20.185Z,66.13
2022-08-21T21:24:10.789Z,66.05
2022-08-21T21:26:49.893Z,66.32
2022-08-21T21:29:30.267Z,66.43
2022-08-21T21:32:01.029Z,66.41
2022-08-21T21:34:33.855Z,66.50
2022-08-21T21:37:30.621Z,66.58
2022-08-21T21:40:21.118Z,66.64
2022-08-21T21:43:03.845Z,66.59
2022-08-21T21:45:43.013Z,66.68
2022-08-21T21:51:27.861Z,66.97
2022-08-21T21:54:18.808Z,66.85
2022-08-21T21:57:17.764Z,67.06
2022-08-21T22:00:14.236Z,66.96
2022-08-21T22:03:08.165Z,67.19
2022-08-21T22:06:04.915Z,67.34
2022-08-21T22:08:51.966Z,67.31
2022-08-21T22:11:32.442Z,67.39
2022-08-21T22:14:22.684Z,67.50
2022-08-21T22:16:54.267Z,67.53
2022-08-21T22:19:34.147Z,67.48
2022-08-21T22:22:18.236Z,67.58
2022-08-21T22:24:50.908Z,67.60
2022-08-21T22:27:33.226Z,67.70
2022-08-21T22:30:54.115Z,67.70
2022-08-21T22:33:28.888Z,67.68
2022-08-21T22:36:00.774Z,67.73
2022-08-21T22:38:34.202Z,67.58
2022-08-21T22:41:27.936Z,67.70
2022-08-21T22:47:06.032Z,68.00
2022-08-21T22:49:47.579Z,67.87
2022-08-21T22:52:30.918Z,68.00
2022-08-21T22:55:29.648Z,68.13
2022-08-21T22:58:38.314Z,68.18
2022-08-21T23:01:33.857Z,68.26
2022-08-21T23:04:23.671Z,68.25
2022-08-21T23:07:06.105Z,68.30
2022-08-21T23:09:47.225Z,68.23
2022-08-21T23:12:34.631Z,68.28
2022-08-21T23:15:10.853Z,68.21
2022-08-21T23:18:01.419Z,68.23
2022-08-21T23:20:58.059Z,68.38
2022-08-21T23:23:34.901Z,68.38
2022-08-21T23:26:52.162Z,68.28
2022-08-21T23:30:04.662Z,68.38
2022-08-21T23:32:57.090Z,68.52
2022-08-21T23:36:08.168Z,68.68
2022-08-21T23:38:53.189Z,68.62
2022-08-21T23:42:00.814Z,68.86
2022-08-21T23:45:14.190Z,68.86
2022-08-21T23:48:04.490Z,68.92
2022-08-21T23:50:44.487Z,68.92
2022-08-21T23:59:18.123Z,69.12
